Time;durP1;ratioP1;P1;durP2;ratioP2;P2;SDS_P1;SDS_P2;PMS_P1;PMS_P2;Temp;Humidity;BMP_temperature;BMP_pressure;BME280_temperature;BME280_humidity;BME280_pressure;Samples;Min_cycle;Max_cycle;Signal;HPM_P1;HPM_P2
2023/09/21 00:02:13;;;;;;;;;;;19.20;99.90;;;;;;4971468;28;19910;-69
2023/09/21 00:04:39;;;;;;;;;;;19.10;99.90;;;;;;4974321;28;19936;-69
2023/09/21 00:07:05;;;;;;;;;;;19.10;99.90;;;;;;4973658;28;20403;-69
2023/09/21 00:09:32;;;;;;;;;;;19.00;99.90;;;;;;4968529;28;20357;-69
2023/09/21 00:11:58;;;;;;;;;;;19.00;99.90;;;;;;4970807;28;19936;-69
2023/09/21 00:14:23;;;;;;;;;;;19.00;99.90;;;;;;4966424;28;19992;-69
2023/09/21 00:16:49;;;;;;;;;;;19.00;99.90;;;;;;4970663;28;19910;-69
2023/09/21 00:19:16;;;;;;;;;;;18.90;99.90;;;;;;4965716;28;19910;-69
2023/09/21 00:21:43;;;;;;;;;;;18.90;99.90;;;;;;4988776;28;19905;-69
2023/09/21 00:24:12;;;;;;;;;;;18.90;99.90;;;;;;4966100;28;19956;-68
2023/09/21 00:26:37;;;;;;;;;;;18.90;99.90;;;;;;4974424;28;20341;-69
2023/09/21 00:29:06;;;;;;;;;;;18.90;99.90;;;;;;4973733;28;19914;-68
2023/09/21 00:31:31;;;;;;;;;;;18.90;99.90;;;;;;4978035;28;20397;-69
2023/09/21 00:33:57;;;;;;;;;;;18.90;99.90;;;;;;4970387;28;19912;-69
2023/09/21 00:36:24;;;;;;;;;;;18.90;99.90;;;;;;4989627;28;19906;-68
2023/09/21 00:38:50;;;;;;;;;;;18.90;99.90;;;;;;4992044;28;19953;-69
2023/09/21 00:41:17;;;;;;;;;;;18.90;99.90;;;;;;4970207;28;19910;-69
2023/09/21 00:43:43;;;;;;;;;;;18.80;99.90;;;;;;4974652;28;19909;-69
2023/09/21 00:46:09;;;;;;;;;;;18.80;99.90;;;;;;4989764;28;19933;-69
2023/09/21 00:48:38;;;;;;;;;;;18.80;99.90;;;;;;4976522;28;20285;-69
2023/09/21 00:51:07;;;;;;;;;;;18.70;99.90;;;;;;4991064;28;20001;-69
2023/09/21 00:53:33;;;;;;;;;;;18.70;99.90;;;;;;4977653;28;19910;-69
2023/09/21 00:56:02;;;;;;;;;;;18.70;99.90;;;;;;4973149;28;20649;-69
2023/09/21 00:58:30;;;;;;;;;;;18.70;99.90;;;;;;4974118;28;19910;-69
2023/09/21 01:00:56;;;;;;;;;;;18.80;99.90;;;;;;4979215;28;19906;-69
2023/09/21 01:03:23;;;;;;;;;;;18.70;99.90;;;;;;4988458;28;19906;-69
2023/09/21 01:05:50;;;;;;;;;;;18.70;99.90;;;;;;4968946;28;19906;-68
2023/09/21 01:08:18;;;;;;;;;;;18.70;99.90;;;;;;4976652;28;20306;-69
2023/09/21 01:10:49;;;;;;;;;;;18.60;99.90;;;;;;4978651;28;20368;-69
2023/09/21 01:13:18;;;;;;;;;;;18.60;99.90;;;;;;4976255;28;20353;-68
2023/09/21 01:15:45;;;;;;;;;;;18.50;99.90;;;;;;4970711;28;19909;-69
2023/09/21 01:18:11;;;;;;;;;;;18.50;99.90;;;;;;4979554;28;20389;-69
2023/09/21 01:20:37;;;;;;;;;;;18.60;99.90;;;;;;4982539;28;20023;-69
2023/09/21 01:23:12;;;;;;;;;;;18.60;99.90;;;;;;4972835;28;20324;-69
2023/09/21 01:25:39;;;;;;;;;;;18.50;99.90;;;;;;4992982;28;19913;-69
2023/09/21 01:28:11;;;;;;;;;;;18.50;99.90;;;;;;4971778;28;19914;-69
2023/09/21 01:30:37;;;;;;;;;;;18.50;99.90;;;;;;4977413;28;19922;-69
2023/09/21 01:33:08;;;;;;;;;;;18.50;99.90;;;;;;4985460;28;19961;-69
2023/09/21 01:35:34;;;;;;;;;;;18.50;99.90;;;;;;4991389;28;19914;-69
2023/09/21 01:38:00;;;;;;;;;;;18.50;99.90;;;;;;4971259;28;19925;-68
2023/09/21 01:40:25;;;;;;;;;;;18.50;99.90;;;;;;4975270;28;19905;-69
2023/09/21 01:42:51;;;;;;;;;;;18.40;99.90;;;;;;4971675;28;19909;-69
2023/09/21 01:45:16;;;;;;;;;;;18.40;99.90;;;;;;4973840;28;20234;-68
2023/09/21 01:47:43;;;;;;;;;;;18.40;99.90;;;;;;4969496;28;20396;-68
2023/09/21 01:50:18;;;;;;;;;;;18.40;99.90;;;;;;4978883;28;19914;-68
2023/09/21 01:52:43;;;;;;;;;;;18.30;99.90;;;;;;4972244;28;20403;-69
2023/09/21 01:55:12;;;;;;;;;;;18.30;99.90;;;;;;4974695;28;19941;-69
2023/09/21 01:57:38;;;;;;;;;;;18.30;99.90;;;;;;4994567;28;20051;-69
2023/09/21 02:00:47;;;;;;;;;;;18.40;99.90;;;;;;4987651;28;20313;-69
2023/09/21 02:02:54;;;;;;;;;;;18.30;99.90;;;;;;4973565;28;19905;-69
2023/09/21 02:05:19;;;;;;;;;;;18.30;99.90;;;;;;4967194;28;19918;-69
2023/09/21 02:07:46;;;;;;;;;;;18.20;99.90;;;;;;4976628;28;19902;-69
2023/09/21 02:10:12;;;;;;;;;;;18.20;99.90;;;;;;4970465;28;19906;-69
2023/09/21 02:12:38;;;;;;;;;;;18.10;99.90;;;;;;4977636;28;19918;-69
2023/09/21 02:15:06;;;;;;;;;;;18.20;99.90;;;;;;4975824;28;19917;-69
2023/09/21 02:17:31;;;;;;;;;;;18.10;99.90;;;;;;4975997;28;20001;-69
2023/09/21 02:19:57;;;;;;;;;;;18.10;99.90;;;;;;4974438;28;20000;-69
2023/09/21 02:22:23;;;;;;;;;;;18.00;99.90;;;;;;4991677;28;19905;-69
2023/09/21 02:24:49;;;;;;;;;;;18.00;99.90;;;;;;4966624;28;19921;-69
2023/09/21 02:27:15;;;;;;;;;;;18.10;99.90;;;;;;4975524;28;20444;-68
2023/09/21 02:29:41;;;;;;;;;;;18.10;99.90;;;;;;4977787;28;19924;-68
2023/09/21 02:32:07;;;;;;;;;;;18.10;99.90;;;;;;4972156;28;20653;-69
2023/09/21 02:34:33;;;;;;;;;;;18.10;99.90;;;;;;4974775;28;19910;-69
2023/09/21 02:37:01;;;;;;;;;;;18.10;99.90;;;;;;4970258;28;20000;-69
2023/09/21 02:39:28;;;;;;;;;;;18.00;99.90;;;;;;4975673;28;20428;-69
2023/09/21 02:41:53;;;;;;;;;;;18.10;99.90;;;;;;4966726;28;20146;-69
2023/09/21 02:44:19;;;;;;;;;;;18.20;99.90;;;;;;4974548;28;19914;-69
2023/09/21 02:46:44;;;;;;;;;;;18.20;99.90;;;;;;4972324;28;19910;-69
2023/09/21 02:49:10;;;;;;;;;;;18.20;99.90;;;;;;4974296;28;20111;-69
2023/09/21 02:51:38;;;;;;;;;;;18.10;99.90;;;;;;4971660;28;19918;-69
2023/09/21 02:54:07;;;;;;;;;;;18.00;99.90;;;;;;4972356;28;19920;-69
2023/09/21 02:56:33;;;;;;;;;;;18.10;99.90;;;;;;4968984;28;20368;-69
2023/09/21 02:59:00;;;;;;;;;;;18.00;99.90;;;;;;4972011;28;20644;-68
2023/09/21 03:01:25;;;;;;;;;;;18.00;99.90;;;;;;4969400;28;19910;-69
2023/09/21 03:03:51;;;;;;;;;;;18.00;99.90;;;;;;4987110;28;20642;-69
2023/09/21 03:06:18;;;;;;;;;;;18.00;99.90;;;;;;4974354;28;20221;-69
2023/09/21 03:08:49;;;;;;;;;;;18.00;99.90;;;;;;4968531;28;19906;-69
2023/09/21 03:11:14;;;;;;;;;;;18.00;99.90;;;;;;4967644;28;19910;-69
2023/09/21 03:13:40;;;;;;;;;;;18.00;99.90;;;;;;4973935;28;20416;-69
2023/09/21 03:16:10;;;;;;;;;;;18.10;99.90;;;;;;4978141;28;19914;-69
2023/09/21 03:18:36;;;;;;;;;;;18.10;99.90;;;;;;4974320;28;19920;-69
2023/09/21 03:21:09;;;;;;;;;;;18.10;99.90;;;;;;4969977;28;19940;-69
2023/09/21 03:23:35;;;;;;;;;;;18.00;99.90;;;;;;4973770;28;20235;-69
2023/09/21 03:26:00;;;;;;;;;;;18.20;99.90;;;;;;4974243;28;19906;-69
2023/09/21 03:28:26;;;;;;;;;;;18.20;99.90;;;;;;4971618;28;20321;-69
2023/09/21 03:30:52;;;;;;;;;;;18.30;99.90;;;;;;4974202;28;20335;-69
2023/09/21 03:33:18;;;;;;;;;;;18.20;99.90;;;;;;4971077;28;19910;-69
2023/09/21 03:35:44;;;;;;;;;;;18.30;99.90;;;;;;4970966;28;19917;-69
2023/09/21 03:38:18;;;;;;;;;;;18.40;99.90;;;;;;4973522;28;20289;-69
2023/09/21 03:40:43;;;;;;;;;;;18.40;99.90;;;;;;4967895;28;19981;-69
2023/09/21 03:43:10;;;;;;;;;;;18.30;99.90;;;;;;4988739;28;20213;-69
2023/09/21 03:45:36;;;;;;;;;;;18.30;99.90;;;;;;4966509;28;19923;-69
2023/09/21 03:48:06;;;;;;;;;;;18.20;99.90;;;;;;4988184;28;19955;-69
2023/09/21 03:50:32;;;;;;;;;;;18.20;99.90;;;;;;4973935;28;19916;-69
2023/09/21 03:52:59;;;;;;;;;;;18.30;99.90;;;;;;4969837;28;19977;-69
2023/09/21 03:55:25;;;;;;;;;;;18.20;99.90;;;;;;4975590;28;20269;-69
2023/09/21 03:57:50;;;;;;;;;;;18.20;99.90;;;;;;4972617;28;19910;-69
2023/09/21 04:02:45;;;;;;;;;;;18.20;99.90;;;;;;4969810;28;19996;-69
2023/09/21 04:05:18;;;;;;;;;;;18.20;99.90;;;;;;4974234;28;20069;-69
2023/09/21 04:07:48;;;;;;;;;;;18.20;99.90;;;;;;4974327;28;19933;-69
2023/09/21 04:10:14;;;;;;;;;;;18.10;99.90;;;;;;4967967;28;19961;-69
2023/09/21 04:12:41;;;;;;;;;;;18.20;99.90;;;;;;4981808;28;19918;-69
2023/09/21 04:15:10;;;;;;;;;;;18.20;99.90;;;;;;4985292;28;19917;-69
2023/09/21 04:17:35;;;;;;;;;;;18.20;99.90;;;;;;4980605;28;21311;-69
2023/09/21 04:20:09;;;;;;;;;;;18.20;99.90;;;;;;4977459;28;19910;-69
2023/09/21 04:22:35;;;;;;;;;;;18.20;99.90;;;;;;4977122;28;20037;-69
2023/09/21 04:25:01;;;;;;;;;;;18.20;99.90;;;;;;4981271;28;20000;-69
2023/09/21 04:27:27;;;;;;;;;;;18.20;99.90;;;;;;4973979;28;19913;-69
2023/09/21 04:29:52;;;;;;;;;;;18.20;99.90;;;;;;4987241;28;19986;-69
2023/09/21 04:32:19;;;;;;;;;;;18.10;99.90;;;;;;4975947;28;19909;-71
2023/09/21 04:34:44;;;;;;;;;;;18.10;99.90;;;;;;4973701;28;19941;-70
2023/09/21 04:37:10;;;;;;;;;;;18.10;99.90;;;;;;4972726;28;19996;-71
2023/09/21 04:39:35;;;;;;;;;;;18.00;99.90;;;;;;4975309;28;19980;-72
2023/09/21 04:42:01;;;;;;;;;;;18.10;99.90;;;;;;4974297;28;19905;-71
2023/09/21 04:44:30;;;;;;;;;;;18.00;99.90;;;;;;4972634;28;20004;-71
2023/09/21 04:46:56;;;;;;;;;;;18.10;99.90;;;;;;4991678;28;19910;-71
2023/09/21 04:49:21;;;;;;;;;;;18.10;99.90;;;;;;4972551;28;19918;-71
2023/09/21 04:51:48;;;;;;;;;;;18.00;99.90;;;;;;4978323;28;19913;-72
2023/09/21 04:54:14;;;;;;;;;;;18.10;99.90;;;;;;4972247;28;20363;-71
2023/09/21 04:56:39;;;;;;;;;;;18.00;99.90;;;;;;4977251;28;19917;-72
2023/09/21 04:59:05;;;;;;;;;;;17.90;99.90;;;;;;4976441;28;19914;-70
2023/09/21 05:01:31;;;;;;;;;;;18.00;99.90;;;;;;4992536;28;20364;-70
2023/09/21 05:03:56;;;;;;;;;;;18.00;99.90;;;;;;4974766;28;19905;-70
2023/09/21 05:06:23;;;;;;;;;;;18.00;99.90;;;;;;4991637;28;20009;-71
2023/09/21 05:08:49;;;;;;;;;;;17.90;99.90;;;;;;4972121;28;19913;-72
2023/09/21 05:11:15;;;;;;;;;;;17.90;99.90;;;;;;4973905;28;19917;-71
2023/09/21 05:13:40;;;;;;;;;;;17.90;99.90;;;;;;4976964;28;19968;-71
2023/09/21 05:16:06;;;;;;;;;;;17.90;99.90;;;;;;4979155;28;20032;-70
2023/09/21 05:18:31;;;;;;;;;;;18.00;99.90;;;;;;4976955;28;19953;-72
2023/09/21 05:20:57;;;;;;;;;;;17.90;99.90;;;;;;4974336;28;19963;-70
2023/09/21 05:23:22;;;;;;;;;;;17.80;99.90;;;;;;4973134;28;19996;-71
2023/09/21 05:25:48;;;;;;;;;;;17.80;99.90;;;;;;4972912;28;19913;-71
2023/09/21 05:28:16;;;;;;;;;;;17.90;99.90;;;;;;4978450;28;19921;-70
2023/09/21 05:30:41;;;;;;;;;;;17.90;99.90;;;;;;4975213;28;20385;-72
2023/09/21 05:33:07;;;;;;;;;;;18.00;99.90;;;;;;4973974;28;19925;-72
2023/09/21 05:35:34;;;;;;;;;;;18.10;99.90;;;;;;4976132;28;20746;-71
2023/09/21 05:37:59;;;;;;;;;;;18.00;99.90;;;;;;4989242;28;19909;-71
2023/09/21 05:40:25;;;;;;;;;;;18.00;99.90;;;;;;4971881;28;20419;-70
2023/09/21 05:42:51;;;;;;;;;;;18.00;99.90;;;;;;4974987;28;20412;-71
2023/09/21 05:45:16;;;;;;;;;;;18.00;99.90;;;;;;4973751;28;19910;-70
2023/09/21 05:47:42;;;;;;;;;;;18.00;99.90;;;;;;4991167;28;19909;-71
2023/09/21 05:50:08;;;;;;;;;;;18.00;99.90;;;;;;4976739;28;19937;-69
2023/09/21 05:52:35;;;;;;;;;;;18.00;99.90;;;;;;4981201;28;19917;-69
2023/09/21 05:55:01;;;;;;;;;;;18.00;99.90;;;;;;4977678;28;19910;-78
2023/09/21 05:57:27;;;;;;;;;;;18.00;99.90;;;;;;4993519;28;20337;-78
2023/09/21 05:59:53;;;;;;;;;;;18.10;99.90;;;;;;4983632;28;20004;-77
2023/09/21 06:02:19;;;;;;;;;;;18.20;99.90;;;;;;4992179;28;20001;-77
2023/09/21 06:04:46;;;;;;;;;;;18.20;99.90;;;;;;4978531;28;19909;-74
2023/09/21 06:07:12;;;;;;;;;;;18.30;99.90;;;;;;4977979;28;19910;-74
2023/09/21 06:09:38;;;;;;;;;;;18.40;99.90;;;;;;4995564;28;19921;-75
2023/09/21 06:12:10;;;;;;;;;;;18.50;99.90;;;;;;4976080;28;20003;-74
2023/09/21 06:14:38;;;;;;;;;;;18.50;99.90;;;;;;4976682;28;19953;-74
2023/09/21 06:17:06;;;;;;;;;;;18.50;99.90;;;;;;4979059;28;19953;-75
2023/09/21 06:19:32;;;;;;;;;;;18.50;99.90;;;;;;4987682;28;20288;-74
2023/09/21 06:21:58;;;;;;;;;;;18.60;99.90;;;;;;4973185;28;19921;-73
2023/09/21 06:24:27;;;;;;;;;;;18.50;99.90;;;;;;4988623;28;20036;-74
2023/09/21 06:26:53;;;;;;;;;;;18.60;99.90;;;;;;4992114;28;19916;-74
2023/09/21 06:29:22;;;;;;;;;;;18.60;99.90;;;;;;4975543;28;19913;-74
2023/09/21 06:31:48;;;;;;;;;;;18.70;99.90;;;;;;4967358;28;20317;-74
2023/09/21 06:34:18;;;;;;;;;;;19.00;99.90;;;;;;4975926;28;19909;-75
2023/09/21 06:36:44;;;;;;;;;;;19.20;99.90;;;;;;4971265;28;19964;-75
2023/09/21 06:39:11;;;;;;;;;;;19.30;99.90;;;;;;4978716;28;20000;-75
2023/09/21 06:41:37;;;;;;;;;;;19.40;99.90;;;;;;4976671;28;21239;-75
2023/09/21 06:44:03;;;;;;;;;;;19.60;99.90;;;;;;4994879;28;19996;-75
2023/09/21 06:46:30;;;;;;;;;;;19.50;99.90;;;;;;4972443;28;19990;-75
2023/09/21 06:48:55;;;;;;;;;;;19.60;99.90;;;;;;4972406;28;19936;-74
2023/09/21 06:51:21;;;;;;;;;;;19.80;99.90;;;;;;4991709;28;19910;-74
2023/09/21 06:53:48;;;;;;;;;;;20.00;99.90;;;;;;4975991;28;19980;-74
2023/09/21 06:56:15;;;;;;;;;;;20.40;99.90;;;;;;4968994;28;19910;-74
2023/09/21 06:58:41;;;;;;;;;;;20.50;99.90;;;;;;4974007;28;19905;-75
2023/09/21 07:01:06;;;;;;;;;;;20.60;99.90;;;;;;4990524;28;19925;-74
2023/09/21 07:03:36;;;;;;;;;;;20.60;99.90;;;;;;4988205;28;20407;-74
2023/09/21 07:06:01;;;;;;;;;;;20.60;99.90;;;;;;4990645;28;20000;-74
2023/09/21 07:08:27;;;;;;;;;;;20.40;99.90;;;;;;4971846;28;19997;-74
2023/09/21 07:10:53;;;;;;;;;;;20.30;99.90;;;;;;4976094;28;19920;-75
2023/09/21 07:13:20;;;;;;;;;;;20.40;99.90;;;;;;4987354;28;19914;-74
2023/09/21 07:15:45;;;;;;;;;;;20.40;99.90;;;;;;4976961;28;19909;-74
2023/09/21 07:18:12;;;;;;;;;;;20.30;99.90;;;;;;4991285;28;19912;-74
2023/09/21 07:20:38;;;;;;;;;;;20.50;99.90;;;;;;4973180;28;19922;-73
2023/09/21 07:23:03;;;;;;;;;;;21.00;99.90;;;;;;4979136;28;20419;-74
2023/09/21 07:25:29;;;;;;;;;;;21.40;99.90;;;;;;4972568;28;19905;-75
2023/09/21 07:27:55;;;;;;;;;;;21.70;99.90;;;;;;4985897;28;20000;-74
2023/09/21 07:30:22;;;;;;;;;;;21.60;99.90;;;;;;4992556;28;19922;-73
2023/09/21 07:32:47;;;;;;;;;;;21.50;99.90;;;;;;4974277;28;19961;-74
2023/09/21 07:35:16;;;;;;;;;;;22.30;99.90;;;;;;4977216;28;19945;-74
2023/09/21 07:37:46;;;;;;;;;;;23.60;99.90;;;;;;4964270;28;19906;-74
2023/09/21 07:40:12;;;;;;;;;;;24.70;99.90;;;;;;4987370;28;19921;-74
2023/09/21 07:42:43;;;;;;;;;;;25.30;99.90;;;;;;4998900;28;19997;-73
2023/09/21 07:45:09;;;;;;;;;;;25.60;99.90;;;;;;4977264;28;19906;-74
2023/09/21 07:47:34;;;;;;;;;;;25.60;99.90;;;;;;4991996;28;20936;-75
2023/09/21 07:50:02;;;;;;;;;;;25.60;99.90;;;;;;4969665;28;19909;-74
2023/09/21 07:52:29;;;;;;;;;;;25.50;99.90;;;;;;4972451;28;20004;-74
2023/09/21 07:54:57;;;;;;;;;;;25.40;99.90;;;;;;4982714;28;20384;-75
2023/09/21 07:57:23;;;;;;;;;;;24.60;99.90;;;;;;4974018;28;19920;-75
2023/09/21 07:59:49;;;;;;;;;;;24.70;99.90;;;;;;4975966;28;19913;-74
2023/09/21 08:02:16;;;;;;;;;;;25.10;99.90;;;;;;4978024;28;20253;-75
2023/09/21 08:04:41;;;;;;;;;;;25.90;99.90;;;;;;4969409;28;19906;-73
2023/09/21 08:07:07;;;;;;;;;;;27.20;99.90;;;;;;4997424;28;19906;-74
2023/09/21 08:09:33;;;;;;;;;;;27.50;99.90;;;;;;4980763;28;20000;-74
2023/09/21 08:12:00;;;;;;;;;;;28.00;99.90;;;;;;4974747;28;19913;-74
2023/09/21 08:14:26;;;;;;;;;;;28.80;99.90;;;;;;4969474;28;19910;-74
2023/09/21 08:16:53;;;;;;;;;;;28.50;99.70;;;;;;4992418;28;19910;-74
2023/09/21 08:19:19;;;;;;;;;;;28.80;99.70;;;;;;4992950;28;19906;-75
2023/09/21 08:21:45;;;;;;;;;;;29.70;98.40;;;;;;4977087;28;19910;-75
2023/09/21 08:24:10;;;;;;;;;;;31.50;96.00;;;;;;4976429;28;19912;-75
2023/09/21 08:26:37;;;;;;;;;;;31.40;95.10;;;;;;4967201;28;19913;-74
2023/09/21 08:29:03;;;;;;;;;;;31.30;94.50;;;;;;4977590;28;19981;-74
2023/09/21 08:31:28;;;;;;;;;;;31.50;94.00;;;;;;4979023;28;19914;-74
2023/09/21 08:33:54;;;;;;;;;;;31.60;93.70;;;;;;4991172;28;19921;-74
2023/09/21 08:36:20;;;;;;;;;;;31.50;92.90;;;;;;4992158;28;19909;-75
2023/09/21 08:38:46;;;;;;;;;;;30.80;93.30;;;;;;4984538;28;19909;-74
2023/09/21 08:41:13;;;;;;;;;;;30.20;93.90;;;;;;4975688;28;20281;-75
2023/09/21 08:43:40;;;;;;;;;;;29.60;94.50;;;;;;4976187;28;19906;-74
2023/09/21 08:46:06;;;;;;;;;;;29.30;95.00;;;;;;4976859;28;20001;-74
2023/09/21 08:48:33;;;;;;;;;;;29.10;95.30;;;;;;4970908;28;19910;-74
2023/09/21 08:51:01;;;;;;;;;;;29.60;94.60;;;;;;4963205;28;20460;-75
2023/09/21 08:53:27;;;;;;;;;;;30.30;94.60;;;;;;4979073;28;19918;-75
2023/09/21 08:55:55;;;;;;;;;;;30.90;93.80;;;;;;4965875;28;20372;-75
2023/09/21 08:58:23;;;;;;;;;;;30.10;93.80;;;;;;4966808;28;20320;-75
2023/09/21 09:00:51;;;;;;;;;;;29.70;94.00;;;;;;4986686;28;19913;-75
2023/09/21 09:03:19;;;;;;;;;;;29.20;95.10;;;;;;4985519;28;19957;-75
2023/09/21 09:05:46;;;;;;;;;;;29.70;94.40;;;;;;4967603;28;19956;-75
2023/09/21 09:08:12;;;;;;;;;;;29.70;94.60;;;;;;4969463;28;19906;-75
2023/09/21 09:10:41;;;;;;;;;;;30.30;94.40;;;;;;4964553;28;20357;-75
2023/09/21 09:13:07;;;;;;;;;;;31.10;93.10;;;;;;4961348;28;20376;-75
2023/09/21 09:15:41;;;;;;;;;;;30.80;92.90;;;;;;4980751;28;20457;-75
2023/09/21 09:18:07;;;;;;;;;;;31.60;92.80;;;;;;4971256;28;20281;-75
2023/09/21 09:20:36;;;;;;;;;;;32.30;91.70;;;;;;4985145;28;20137;-74
2023/09/21 09:23:02;;;;;;;;;;;32.50;91.40;;;;;;4965466;28;19997;-74
2023/09/21 09:25:28;;;;;;;;;;;33.30;90.30;;;;;;4986106;28;19906;-75
2023/09/21 09:27:54;;;;;;;;;;;32.50;90.20;;;;;;4971654;28;19912;-75
2023/09/21 09:30:22;;;;;;;;;;;32.80;90.20;;;;;;4971041;28;19922;-76
2023/09/21 09:32:50;;;;;;;;;;;32.80;89.50;;;;;;4971012;28;19914;-75
2023/09/21 09:35:17;;;;;;;;;;;32.20;90.30;;;;;;4982204;28;19964;-75
2023/09/21 09:37:47;;;;;;;;;;;32.20;90.30;;;;;;4964832;28;19917;-75
2023/09/21 09:40:13;;;;;;;;;;;31.90;90.40;;;;;;4984472;28;19906;-75
2023/09/21 09:42:40;;;;;;;;;;;31.60;91.00;;;;;;4971776;28;20046;-76
2023/09/21 09:45:08;;;;;;;;;;;32.70;89.90;;;;;;4970662;28;19914;-75
2023/09/21 09:47:36;;;;;;;;;;;32.50;88.10;;;;;;4973084;28;21211;-75
2023/09/21 09:50:03;;;;;;;;;;;32.20;87.70;;;;;;4969801;28;19960;-75
2023/09/21 09:52:29;;;;;;;;;;;31.70;88.30;;;;;;4988167;28;20233;-76
2023/09/21 09:54:56;;;;;;;;;;;31.70;88.60;;;;;;4973939;28;19917;-76
2023/09/21 09:57:22;;;;;;;;;;;32.50;87.60;;;;;;4968986;28;20000;-75
2023/09/21 09:59:48;;;;;;;;;;;32.40;86.70;;;;;;4981547;28;19910;-75
2023/09/21 10:02:17;;;;;;;;;;;31.20;88.70;;;;;;4976492;28;19925;-75
2023/09/21 10:04:46;;;;;;;;;;;30.60;90.00;;;;;;4980265;28;20420;-75
2023/09/21 10:07:15;;;;;;;;;;;32.00;88.40;;;;;;4976450;28;19953;-76
2023/09/21 10:09:41;;;;;;;;;;;33.30;86.10;;;;;;4980297;28;19910;-75
2023/09/21 10:12:08;;;;;;;;;;;33.80;83.10;;;;;;4961634;28;19910;-75
2023/09/21 10:14:36;;;;;;;;;;;34.20;82.30;;;;;;4972049;28;20357;-75
2023/09/21 10:17:04;;;;;;;;;;;34.10;82.70;;;;;;4968962;28;20383;-75
2023/09/21 10:19:29;;;;;;;;;;;35.00;81.30;;;;;;4981242;28;20810;-75
2023/09/21 10:22:03;;;;;;;;;;;35.40;79.90;;;;;;4973152;28;19964;-74
2023/09/21 10:24:29;;;;;;;;;;;35.10;78.90;;;;;;4970906;28;19916;-75
2023/09/21 10:27:03;;;;;;;;;;;35.60;78.30;;;;;;4975439;28;19906;-75
2023/09/21 10:29:32;;;;;;;;;;;35.40;77.30;;;;;;4983401;28;19921;-75
2023/09/21 10:32:02;;;;;;;;;;;36.30;75.20;;;;;;4985426;28;19910;-75
2023/09/21 10:34:28;;;;;;;;;;;36.10;72.70;;;;;;4978999;28;20306;-76
2023/09/21 10:37:01;;;;;;;;;;;35.70;73.50;;;;;;4967526;28;19917;-75
2023/09/21 10:39:28;;;;;;;;;;;35.10;73.60;;;;;;4961533;28;20395;-74
2023/09/21 10:41:56;;;;;;;;;;;34.20;74.20;;;;;;4962210;28;20397;-74
2023/09/21 10:44:40;;;;;;;;;;;33.20;76.90;;;;;;4983961;28;19965;-75
2023/09/21 10:47:05;;;;;;;;;;;33.30;76.50;;;;;;4974914;28;19928;-75
2023/09/21 10:49:33;;;;;;;;;;;34.20;76.30;;;;;;4966732;28;20404;-75
2023/09/21 10:52:00;;;;;;;;;;;34.40;74.30;;;;;;4964493;28;19910;-75
2023/09/21 10:54:25;;;;;;;;;;;33.20;75.10;;;;;;4971937;28;19906;-74
2023/09/21 10:56:52;;;;;;;;;;;30.50;79.30;;;;;;4965051;28;19945;-74
2023/09/21 10:59:17;;;;;;;;;;;29.10;83.10;;;;;;4964487;28;20382;-78
2023/09/21 11:01:43;;;;;;;;;;;28.60;84.60;;;;;;4967028;28;19910;-77
2023/09/21 11:04:10;;;;;;;;;;;28.20;86.00;;;;;;4960595;28;19914;-73
2023/09/21 11:06:37;;;;;;;;;;;28.20;87.20;;;;;;4969851;28;19913;-74
2023/09/21 11:09:07;;;;;;;;;;;27.90;88.50;;;;;;4970872;28;19916;-73
2023/09/21 11:11:34;;;;;;;;;;;27.60;88.80;;;;;;4971648;28;19916;-74
2023/09/21 11:14:03;;;;;;;;;;;27.50;90.00;;;;;;4980776;28;19910;-73
2023/09/21 11:16:28;;;;;;;;;;;27.50;88.40;;;;;;4983215;28;20231;-74
2023/09/21 11:18:55;;;;;;;;;;;27.40;88.80;;;;;;4969020;28;20012;-74
2023/09/21 11:21:24;;;;;;;;;;;27.50;89.10;;;;;;4972851;28;19913;-73
2023/09/21 11:23:49;;;;;;;;;;;27.50;89.30;;;;;;4966889;28;20583;-74
2023/09/21 11:26:15;;;;;;;;;;;27.40;89.40;;;;;;4969085;28;19989;-73
2023/09/21 11:28:42;;;;;;;;;;;27.50;90.30;;;;;;4976169;28;20455;-73
2023/09/21 11:31:08;;;;;;;;;;;27.60;88.80;;;;;;4968699;28;19906;-72
2023/09/21 11:33:35;;;;;;;;;;;27.70;89.80;;;;;;4996793;28;19924;-74
2023/09/21 11:36:01;;;;;;;;;;;27.50;89.20;;;;;;4955308;28;19921;-74
2023/09/21 11:38:29;;;;;;;;;;;27.60;88.30;;;;;;4964568;28;20234;-73
2023/09/21 11:40:54;;;;;;;;;;;27.60;88.20;;;;;;4957161;28;20448;-74
2023/09/21 11:43:20;;;;;;;;;;;27.90;88.10;;;;;;4970734;28;20005;-74
2023/09/21 11:45:46;;;;;;;;;;;27.90;87.60;;;;;;4962473;28;19913;-73
2023/09/21 11:48:12;;;;;;;;;;;28.20;87.80;;;;;;4971886;28;20258;-72
2023/09/21 11:50:38;;;;;;;;;;;27.90;86.30;;;;;;4960321;28;19976;-73
2023/09/21 11:53:07;;;;;;;;;;;27.80;87.40;;;;;;4961941;28;19928;-74
2023/09/21 11:55:33;;;;;;;;;;;27.80;86.90;;;;;;4966127;28;19917;-73
2023/09/21 11:58:12;;;;;;;;;;;27.30;87.40;;;;;;4968961;28;19910;-74
2023/09/21 12:00:43;;;;;;;;;;;27.40;88.00;;;;;;4970853;28;19910;-73
2023/09/21 12:03:13;;;;;;;;;;;27.60;87.10;;;;;;4977086;28;19906;-73
2023/09/21 12:05:40;;;;;;;;;;;27.70;87.80;;;;;;4967526;28;19914;-74
2023/09/21 12:08:06;;;;;;;;;;;27.30;87.50;;;;;;4969642;28;20393;-74
2023/09/21 12:10:32;;;;;;;;;;;27.10;87.50;;;;;;4968314;28;19905;-72
2023/09/21 12:12:58;;;;;;;;;;;27.10;88.00;;;;;;4963751;28;20041;-73
2023/09/21 12:15:23;;;;;;;;;;;27.20;87.00;;;;;;4966991;28;19909;-72
2023/09/21 12:17:49;;;;;;;;;;;27.40;87.70;;;;;;4962425;28;20009;-72
2023/09/21 12:20:18;;;;;;;;;;;27.80;87.50;;;;;;4964070;28;20270;-72
2023/09/21 12:22:44;;;;;;;;;;;27.80;86.50;;;;;;4978336;28;19906;-71
2023/09/21 12:25:10;;;;;;;;;;;27.80;86.60;;;;;;4970313;28;20306;-71
2023/09/21 12:27:38;;;;;;;;;;;27.80;86.80;;;;;;4969158;28;19924;-71
2023/09/21 12:30:12;;;;;;;;;;;27.90;87.40;;;;;;4965276;28;20394;-72
2023/09/21 12:32:40;;;;;;;;;;;27.90;86.90;;;;;;4972055;28;19914;-72
2023/09/21 12:35:08;;;;;;;;;;;28.00;87.40;;;;;;4968644;28;19918;-71
2023/09/21 12:37:34;;;;;;;;;;;28.10;87.50;;;;;;4966751;28;19913;-71
2023/09/21 12:40:00;;;;;;;;;;;28.20;86.00;;;;;;4972692;28;20323;-71
2023/09/21 12:42:27;;;;;;;;;;;28.10;85.80;;;;;;4969866;28;20300;-70
2023/09/21 12:44:53;;;;;;;;;;;28.10;86.20;;;;;;4965657;28;19910;-71
2023/09/21 12:47:19;;;;;;;;;;;28.20;85.20;;;;;;4963959;28;19917;-71
2023/09/21 12:49:45;;;;;;;;;;;28.10;85.60;;;;;;4962318;28;19924;-70
2023/09/21 12:52:11;;;;;;;;;;;28.20;85.10;;;;;;4973851;28;20032;-70
2023/09/21 12:54:39;;;;;;;;;;;28.20;84.00;;;;;;4966003;28;19941;-71
2023/09/21 12:57:05;;;;;;;;;;;28.20;84.20;;;;;;4968305;28;20436;-70
2023/09/21 12:59:30;;;;;;;;;;;28.20;84.30;;;;;;4970690;28;19914;-70
2023/09/21 13:01:56;;;;;;;;;;;28.20;83.60;;;;;;4969700;28;19906;-71
2023/09/21 13:04:22;;;;;;;;;;;28.20;83.80;;;;;;4972612;28;19913;-71
2023/09/21 13:06:47;;;;;;;;;;;28.10;83.20;;;;;;4971479;28;19964;-71
2023/09/21 13:09:13;;;;;;;;;;;28.00;83.30;;;;;;4973113;28;19920;-69
2023/09/21 13:11:40;;;;;;;;;;;27.90;83.40;;;;;;4967466;28;19946;-71
2023/09/21 13:14:05;;;;;;;;;;;28.00;84.00;;;;;;4963909;28;19909;-70
2023/09/21 13:16:32;;;;;;;;;;;28.10;84.00;;;;;;4965601;28;19917;-71
2023/09/21 13:18:58;;;;;;;;;;;28.10;83.20;;;;;;4969060;28;19907;-71
2023/09/21 13:21:25;;;;;;;;;;;28.00;83.80;;;;;;4968691;28;20381;-72
2023/09/21 13:23:53;;;;;;;;;;;28.00;83.60;;;;;;4963596;28;19910;-70
2023/09/21 13:26:18;;;;;;;;;;;27.90;83.60;;;;;;4972260;28;19918;-71
2023/09/21 13:28:44;;;;;;;;;;;27.80;83.80;;;;;;4973451;28;19910;-71
2023/09/21 13:31:11;;;;;;;;;;;27.80;83.50;;;;;;4973098;28;19910;-71
2023/09/21 13:33:37;;;;;;;;;;;27.90;83.20;;;;;;4969168;28;19910;-71
2023/09/21 13:36:03;;;;;;;;;;;27.90;83.80;;;;;;4965249;28;19913;-71
2023/09/21 13:38:29;;;;;;;;;;;27.90;83.10;;;;;;4959973;28;19912;-72
2023/09/21 13:40:56;;;;;;;;;;;28.00;82.80;;;;;;4965285;28;19917;-72
2023/09/21 13:43:23;;;;;;;;;;;28.00;83.10;;;;;;4963785;28;20337;-70
2023/09/21 13:45:49;;;;;;;;;;;28.00;82.70;;;;;;4964004;28;19905;-71
2023/09/21 13:48:16;;;;;;;;;;;27.90;82.50;;;;;;4974542;28;19906;-71
2023/09/21 13:50:42;;;;;;;;;;;27.90;82.70;;;;;;4973123;28;19913;-71
2023/09/21 13:53:08;;;;;;;;;;;28.00;83.00;;;;;;4962878;28;19910;-71
2023/09/21 13:55:34;;;;;;;;;;;27.90;82.40;;;;;;4967346;28;19907;-72
2023/09/21 13:58:00;;;;;;;;;;;27.90;82.40;;;;;;4966610;28;20539;-70
2023/09/21 14:00:26;;;;;;;;;;;28.00;82.20;;;;;;4984999;28;19953;-63
2023/09/21 14:02:51;;;;;;;;;;;28.00;82.60;;;;;;4970081;28;19975;-63
2023/09/21 14:05:21;;;;;;;;;;;28.00;81.80;;;;;;4967045;28;19914;-63
2023/09/21 14:07:48;;;;;;;;;;;27.90;82.20;;;;;;4957957;28;20378;-63
2023/09/21 14:10:14;;;;;;;;;;;27.80;82.30;;;;;;4962260;28;19906;-64
2023/09/21 14:12:40;;;;;;;;;;;27.80;82.60;;;;;;4962031;28;19919;-63
2023/09/21 14:15:06;;;;;;;;;;;27.80;82.50;;;;;;4960226;28;19914;-64
2023/09/21 14:17:32;;;;;;;;;;;27.80;82.40;;;;;;4972141;28;19909;-63